Time;durP1;ratioP1;P1;durP2;ratioP2;P2;SDS_P1;SDS_P2;PMS_P1;PMS_P2;Temp;Humidity;BMP_temperature;BMP_pressure;BME280_temperature;BME280_humidity;BME280_pressure;Samples;Min_cycle;Max_cycle;Signal;HPM_P1;HPM_P2
2023/03/03 00:00:53;;;;;;;18.67;9.93;;;;;;;;;;4927825;28;20113;-68
2023/03/03 00:03:21;;;;;;;14.18;9.52;;;;;;;;;;4922009;28;20200;-68
2023/03/03 00:05:48;;;;;;;15.15;9.32;;;;;;;;;;4924982;28;20130;-68
2023/03/03 00:08:14;;;;;;;14.77;9.27;;;;;;;;;;4921964;28;20031;-68
2023/03/03 00:10:40;;;;;;;14.90;9.02;;;;;;;;;;4928002;28;20034;-68
2023/03/03 00:13:16;;;;;;;15.90;10.23;;;;;;;;;;4923955;28;20035;-68
2023/03/03 00:15:43;;;;;;;14.15;8.50;;;;;;;;;;4927485;28;20038;-68
2023/03/03 00:18:21;;;;;;;15.50;8.73;;;;;;;;;;4926570;28;20039;-68
2023/03/03 00:20:49;;;;;;;15.38;8.57;;;;;;;;;;4926120;28;20521;-68
2023/03/03 00:23:28;;;;;;;15.63;9.80;;;;;;;;;;4924101;28;20030;-68
2023/03/03 00:25:55;;;;;;;14.02;9.38;;;;;;;;;;4927305;28;20034;-68
2023/03/03 00:28:40;;;;;;;14.82;9.40;;;;;;;;;;4924381;28;20035;-68
2023/03/03 00:31:12;;;;;;;14.07;8.73;;;;;;;;;;4922963;28;20094;-69
2023/03/03 00:33:44;;;;;;;13.45;8.63;;;;;;;;;;4930494;28;20026;-67
2023/03/03 00:36:22;;;;;;;14.93;9.95;;;;;;;;;;4922758;28;20030;-68
2023/03/03 00:38:49;;;;;;;17.00;10.23;;;;;;;;;;4928318;28;20039;-69
2023/03/03 00:41:25;;;;;;;15.68;9.13;;;;;;;;;;4920975;28;20047;-68
2023/03/03 00:43:52;;;;;;;15.48;9.98;;;;;;;;;;4920668;28;20577;-67
2023/03/03 00:46:19;;;;;;;17.02;10.27;;;;;;;;;;4924007;28;20118;-68
2023/03/03 00:48:46;;;;;;;17.70;10.05;;;;;;;;;;4924953;28;20446;-68
2023/03/03 00:51:26;;;;;;;15.57;9.77;;;;;;;;;;4922289;28;20046;-68
2023/03/03 00:53:52;;;;;;;17.17;10.27;;;;;;;;;;4930687;28;20035;-68
2023/03/03 00:56:18;;;;;;;19.00;10.52;;;;;;;;;;4918924;28;20599;-68
2023/03/03 00:58:46;;;;;;;18.13;11.77;;;;;;;;;;4926963;28;20765;-69
2023/03/03 01:01:13;;;;;;;15.27;10.40;;;;;;;;;;4929857;28;20541;-68
2023/03/03 01:03:39;;;;;;;17.20;11.48;;;;;;;;;;4923676;28;20063;-69
2023/03/03 01:06:06;;;;;;;16.80;11.07;;;;;;;;;;4926606;28;20054;-68
2023/03/03 01:08:32;;;;;;;17.27;11.55;;;;;;;;;;4923863;28;20051;-69
2023/03/03 01:10:59;;;;;;;17.88;10.40;;;;;;;;;;4926712;28;20028;-68
2023/03/03 01:13:27;;;;;;;17.20;11.85;;;;;;;;;;4923826;28;20039;-68
2023/03/03 01:15:54;;;;;;;17.23;10.77;;;;;;;;;;4926780;28;20035;-68
2023/03/03 01:18:20;;;;;;;15.68;10.82;;;;;;;;;;4925562;28;20062;-67
2023/03/03 01:20:46;;;;;;;15.07;9.60;;;;;;;;;;4932954;28;20501;-69
2023/03/03 01:23:12;;;;;;;16.88;10.15;;;;;;;;;;4927987;28;20775;-69
2023/03/03 01:25:38;;;;;;;17.65;9.80;;;;;;;;;;4931519;28;20268;-69
2023/03/03 01:28:05;;;;;;;15.65;9.75;;;;;;;;;;4930146;28;20039;-69
2023/03/03 01:30:31;;;;;;;;;;;;;;;;;;4933855;28;20031;-69
2023/03/03 01:32:57;;;;;;;16.08;9.35;;;;;;;;;;4933588;28;20321;-69
2023/03/03 01:35:24;;;;;;;17.75;10.73;;;;;;;;;;4926439;28;20068;-69
2023/03/03 01:37:50;;;;;;;18.10;12.05;;;;;;;;;;4931851;28;20050;-69
2023/03/03 01:40:24;;;;;;;16.05;11.13;;;;;;;;;;4929063;28;20500;-68
2023/03/03 01:42:51;;;;;;;15.27;10.80;;;;;;;;;;4930579;28;20538;-69
2023/03/03 01:45:25;;;;;;;15.02;10.65;;;;;;;;;;4926186;28;20556;-70
2023/03/03 01:47:53;;;;;;;14.52;10.13;;;;;;;;;;4931456;28;21693;-69
2023/03/03 01:50:46;;;;;;;15.88;10.02;;;;;;;;;;4927936;28;20174;-68
2023/03/03 01:53:18;;;;;;;16.02;9.73;;;;;;;;;;4927720;28;20477;-69
2023/03/03 01:55:45;;;;;;;15.10;9.65;;;;;;;;;;4929990;28;20031;-66
2023/03/03 01:58:16;;;;;;;15.32;8.90;;;;;;;;;;4931306;28;20146;-65
2023/03/03 02:00:45;;;;;;;15.68;8.85;;;;;;;;;;4928682;28;20863;-65
2023/03/03 02:03:12;;;;;;;16.95;9.98;;;;;;;;;;4924970;28;20142;-67
2023/03/03 02:05:40;;;;;;;16.00;9.77;;;;;;;;;;4930519;28;20030;-68
2023/03/03 02:08:07;;;;;;;16.00;9.27;;;;;;;;;;4926373;28;20426;-67
2023/03/03 02:10:34;;;;;;;17.15;9.75;;;;;;;;;;4921324;28;20035;-68
2023/03/03 02:13:00;;;;;;;13.90;9.23;;;;;;;;;;4928598;28;20035;-68
2023/03/03 02:15:27;;;;;;;17.40;10.15;;;;;;;;;;4926015;28;20145;-68
2023/03/03 02:17:55;;;;;;;15.48;9.38;;;;;;;;;;4931567;28;20053;-68
2023/03/03 02:20:32;;;;;;;14.00;9.20;;;;;;;;;;4924987;28;20039;-68
2023/03/03 02:23:05;;;;;;;14.40;9.32;;;;;;;;;;4931042;28;20304;-68
2023/03/03 02:25:36;;;;;;;16.55;9.05;;;;;;;;;;4927909;28;20032;-68
2023/03/03 02:28:02;;;;;;;14.57;8.95;;;;;;;;;;4924628;28;20027;-68
2023/03/03 02:30:29;;;;;;;15.00;10.02;;;;;;;;;;4928981;28;20715;-68
2023/03/03 02:32:55;;;;;;;13.70;8.68;;;;;;;;;;4930068;28;20607;-68
2023/03/03 02:35:27;;;;;;;14.55;9.48;;;;;;;;;;4926326;28;20531;-68
2023/03/03 02:37:54;;;;;;;15.82;10.30;;;;;;;;;;4923429;28;20509;-68
2023/03/03 02:40:21;;;;;;;15.85;9.27;;;;;;;;;;4927189;28;20038;-68
2023/03/03 02:42:48;;;;;;;15.82;9.00;;;;;;;;;;4926655;28;20503;-68
2023/03/03 02:45:14;;;;;;;14.85;9.10;;;;;;;;;;4922377;28;20032;-68
2023/03/03 02:47:40;;;;;;;17.30;10.05;;;;;;;;;;4927221;28;20143;-69
2023/03/03 02:50:07;;;;;;;16.20;10.73;;;;;;;;;;4926128;28;20035;-67
2023/03/03 02:52:33;;;;;;;17.65;10.07;;;;;;;;;;4928439;28;20517;-68
2023/03/03 02:54:59;;;;;;;15.57;10.40;;;;;;;;;;4927051;28;20045;-68
2023/03/03 02:57:25;;;;;;;16.50;10.07;;;;;;;;;;4919363;28;20039;-68
2023/03/03 02:59:51;;;;;;;15.13;9.70;;;;;;;;;;4927759;28;20481;-69
2023/03/03 03:02:18;;;;;;;13.88;8.00;;;;;;;;;;4924966;28;20118;-68
2023/03/03 03:04:44;;;;;;;;;;;;;;;;;;4926718;28;20063;-68
2023/03/03 03:07:10;;;;;;;15.02;9.48;;;;;;;;;;4922502;28;19914;-68
2023/03/03 03:09:36;;;;;;;15.65;9.27;;;;;;;;;;4925958;28;20028;-67
2023/03/03 03:12:04;;;;;;;18.38;10.43;;;;;;;;;;4922653;28;20043;-68
2023/03/03 03:14:30;;;;;;;16.50;9.70;;;;;;;;;;4926183;28;20276;-67
2023/03/03 03:16:56;;;;;;;14.55;9.90;;;;;;;;;;4924064;28;20518;-68
2023/03/03 03:19:22;;;;;;;16.55;9.43;;;;;;;;;;4909322;28;20577;-68
2023/03/03 03:21:48;;;;;;;13.63;9.32;;;;;;;;;;4926102;28;20450;-67
2023/03/03 03:24:15;;;;;;;15.30;9.55;;;;;;;;;;4923713;28;20138;-68
2023/03/03 03:26:41;;;;;;;14.85;9.38;;;;;;;;;;4927295;28;20031;-68
2023/03/03 03:29:07;;;;;;;15.15;9.13;;;;;;;;;;4918761;28;20227;-69
2023/03/03 03:31:33;;;;;;;12.98;8.02;;;;;;;;;;4914193;28;20050;-69
2023/03/03 03:33:59;;;;;;;15.40;7.45;;;;;;;;;;4926762;28;20478;-68
2023/03/03 03:36:27;;;;;;;17.00;9.00;;;;;;;;;;4921249;28;20043;-68
2023/03/03 03:38:53;;;;;;;15.23;8.32;;;;;;;;;;4926004;28;20460;-67
2023/03/03 03:41:19;;;;;;;17.35;9.60;;;;;;;;;;4913528;28;20401;-67
2023/03/03 03:43:45;;;;;;;14.20;8.82;;;;;;;;;;4924585;28;20130;-66
2023/03/03 03:46:12;;;;;;;13.40;7.75;;;;;;;;;;4923078;28;20039;-69
2023/03/03 03:48:38;;;;;;;12.82;7.90;;;;;;;;;;4927516;28;20030;-67
2023/03/03 03:51:04;;;;;;;15.05;9.55;;;;;;;;;;4923402;28;20031;-64
2023/03/03 03:53:30;;;;;;;14.38;8.82;;;;;;;;;;4927979;28;20122;-66
2023/03/03 03:55:57;;;;;;;13.45;9.55;;;;;;;;;;4922604;28;20035;-66
2023/03/03 03:58:23;;;;;;;14.77;8.23;;;;;;;;;;4923361;28;20830;-65
2023/03/03 04:00:49;;;;;;;14.52;8.95;;;;;;;;;;4926571;28;20069;-67
2023/03/03 04:03:15;;;;;;;15.98;9.18;;;;;;;;;;4922085;28;20138;-66
2023/03/03 04:05:41;;;;;;;12.68;8.48;;;;;;;;;;4926782;28;20046;-66
2023/03/03 04:08:08;;;;;;;13.75;8.68;;;;;;;;;;4923089;28;20446;-66
2023/03/03 04:10:34;;;;;;;13.90;8.70;;;;;;;;;;4925766;28;20031;-66
2023/03/03 04:13:00;;;;;;;13.88;8.73;;;;;;;;;;4926147;28;20439;-66
2023/03/03 04:15:26;;;;;;;12.82;7.90;;;;;;;;;;4922246;28;20031;-67
2023/03/03 04:17:52;;;;;;;14.07;8.68;;;;;;;;;;4924507;28;20318;-67
2023/03/03 04:20:19;;;;;;;13.65;8.90;;;;;;;;;;4921444;28;20117;-67
2023/03/03 04:22:45;;;;;;;12.82;7.78;;;;;;;;;;4924269;28;20035;-66
2023/03/03 04:25:13;;;;;;;16.33;8.68;;;;;;;;;;4923252;28;20313;-66
2023/03/03 04:27:40;;;;;;;14.98;8.90;;;;;;;;;;4923175;28;20226;-66
2023/03/03 04:30:06;;;;;;;14.80;8.38;;;;;;;;;;4925830;28;20035;-66
2023/03/03 04:32:33;;;;;;;13.05;7.85;;;;;;;;;;4928626;28;20028;-68
2023/03/03 04:34:59;;;;;;;16.55;8.75;;;;;;;;;;4936802;28;20454;-66
2023/03/03 04:37:26;;;;;;;13.02;8.23;;;;;;;;;;4922307;28;20434;-66
2023/03/03 04:39:52;;;;;;;15.07;9.35;;;;;;;;;;4926297;28;20189;-66
2023/03/03 04:42:18;;;;;;;16.58;9.63;;;;;;;;;;4922938;28;20548;-66
2023/03/03 04:44:44;;;;;;;14.27;8.57;;;;;;;;;;4923367;28;20035;-66
2023/03/03 04:47:10;;;;;;;14.70;8.65;;;;;;;;;;4918835;28;20107;-66
2023/03/03 04:49:37;;;;;;;18.88;9.25;;;;;;;;;;4925269;28;20051;-67
2023/03/03 04:52:03;;;;;;;;;;;;;;;;;;4923889;28;20591;-67
2023/03/03 04:54:29;;;;;;;15.48;9.20;;;;;;;;;;4929677;28;19914;-66
2023/03/03 04:56:55;;;;;;;20.10;10.23;;;;;;;;;;4928164;28;20027;-66
2023/03/03 04:59:21;;;;;;;15.20;10.65;;;;;;;;;;4932542;28;20245;-66
2023/03/03 05:01:49;;;;;;;16.58;9.63;;;;;;;;;;4930095;28;20046;-66
2023/03/03 05:04:16;;;;;;;14.77;9.18;;;;;;;;;;4927450;28;20038;-66
2023/03/03 05:06:42;;;;;;;16.42;9.30;;;;;;;;;;4933016;28;20391;-66
2023/03/03 05:09:08;;;;;;;15.05;10.80;;;;;;;;;;4930865;28;20027;-68
2023/03/03 05:11:35;;;;;;;17.08;10.50;;;;;;;;;;4935167;28;20038;-67
2023/03/03 05:14:01;;;;;;;;;;;;;;;;;;4928239;28;20039;-66
2023/03/03 05:16:28;;;;;;;14.00;8.95;;;;;;;;;;4920705;28;19921;-66
2023/03/03 05:18:57;;;;;;;14.52;9.80;;;;;;;;;;4933077;28;20031;-66
2023/03/03 05:21:24;;;;;;;16.05;8.95;;;;;;;;;;4924951;28;20034;-67
2023/03/03 05:23:51;;;;;;;14.13;8.50;;;;;;;;;;4931690;28;20031;-66
2023/03/03 05:26:17;;;;;;;12.80;8.82;;;;;;;;;;4923982;28;20039;-67
2023/03/03 05:28:43;;;;;;;13.57;9.05;;;;;;;;;;4931071;28;20038;-66
2023/03/03 05:31:10;;;;;;;15.20;9.75;;;;;;;;;;4931864;28;20349;-66
2023/03/03 05:33:37;;;;;;;13.50;8.88;;;;;;;;;;4926762;28;20469;-67
2023/03/03 05:36:03;;;;;;;13.60;9.43;;;;;;;;;;4926191;28;20040;-67
2023/03/03 05:38:29;;;;;;;14.85;8.77;;;;;;;;;;4930535;28;20078;-66
2023/03/03 05:40:55;;;;;;;18.02;10.80;;;;;;;;;;4927613;28;20048;-67
2023/03/03 05:43:21;;;;;;;15.38;10.07;;;;;;;;;;4929217;28;20095;-67
2023/03/03 05:45:48;;;;;;;16.00;9.88;;;;;;;;;;4928885;28;20066;-66
2023/03/03 05:48:14;;;;;;;16.33;9.90;;;;;;;;;;4923707;28;20031;-67
2023/03/03 05:50:40;;;;;;;15.50;9.90;;;;;;;;;;4927401;28;20501;-67
2023/03/03 05:53:06;;;;;;;16.17;9.23;;;;;;;;;;4925824;28;20027;-67
2023/03/03 05:55:32;;;;;;;15.13;9.52;;;;;;;;;;4928997;28;20051;-67
2023/03/03 05:57:58;;;;;;;14.68;9.98;;;;;;;;;;4930709;28;20232;-66
2023/03/03 06:00:24;;;;;;;17.30;10.30;;;;;;;;;;4923170;28;20230;-66
2023/03/03 06:02:50;;;;;;;17.60;11.15;;;;;;;;;;4929227;28;20135;-66
2023/03/03 06:05:17;;;;;;;18.27;11.60;;;;;;;;;;4925545;28;20042;-67
2023/03/03 06:07:43;;;;;;;19.88;12.20;;;;;;;;;;4931795;28;20050;-66
2023/03/03 06:10:10;;;;;;;19.40;13.88;;;;;;;;;;4929216;28;20241;-67
2023/03/03 06:12:37;;;;;;;21.52;14.93;;;;;;;;;;4930245;28;20033;-67
2023/03/03 06:15:04;;;;;;;20.60;13.90;;;;;;;;;;4923897;28;20035;-67
2023/03/03 06:17:30;;;;;;;;;;;;;;;;;;4930918;28;20649;-66
2023/03/03 06:19:56;;;;;;;21.65;14.05;;;;;;;;;;4927775;28;20447;-66
2023/03/03 06:22:22;;;;;;;20.40;14.20;;;;;;;;;;4926103;28;20167;-67
2023/03/03 06:24:48;;;;;;;23.70;15.18;;;;;;;;;;4929009;28;20050;-67
2023/03/03 06:27:14;;;;;;;23.08;13.90;;;;;;;;;;4926392;28;20326;-66
2023/03/03 06:29:41;;;;;;;21.85;13.40;;;;;;;;;;4929975;28;20027;-66
2023/03/03 06:32:07;;;;;;;20.60;12.77;;;;;;;;;;4932455;28;20031;-66
2023/03/03 06:34:33;;;;;;;15.98;10.10;;;;;;;;;;4926553;28;20066;-66
2023/03/03 06:36:59;;;;;;;16.15;10.27;;;;;;;;;;4932873;28;20026;-66
2023/03/03 06:39:25;;;;;;;16.13;10.15;;;;;;;;;;4924805;28;20521;-67
2023/03/03 06:41:52;;;;;;;14.57;9.30;;;;;;;;;;4933186;28;20043;-67
2023/03/03 06:44:18;;;;;;;20.88;15.38;;;;;;;;;;4925258;28;20619;-67
2023/03/03 06:46:44;;;;;;;19.38;13.60;;;;;;;;;;4927618;28;20035;-68
2023/03/03 06:49:10;;;;;;;18.30;11.43;;;;;;;;;;4926838;28;20142;-71
2023/03/03 06:51:38;;;;;;;20.13;12.80;;;;;;;;;;4926306;28;20296;-67
2023/03/03 06:54:23;;;;;;;25.92;18.58;;;;;;;;;;4923894;28;20746;-66
2023/03/03 06:56:58;;;;;;;24.75;16.92;;;;;;;;;;4931083;28;20035;-67
2023/03/03 06:59:24;;;;;;;40.78;28.58;;;;;;;;;;4926969;28;20039;-66
2023/03/03 07:01:50;;;;;;;38.92;26.80;;;;;;;;;;4928893;28;20445;-66
2023/03/03 07:04:16;;;;;;;;;;;;;;;;;;4927395;28;20093;-66
2023/03/03 07:06:43;;;;;;;39.40;28.38;;;;;;;;;;4926634;28;19922;-67
2023/03/03 07:09:15;;;;;;;37.65;27.38;;;;;;;;;;4924975;28;20037;-67
2023/03/03 07:11:42;;;;;;;33.45;24.35;;;;;;;;;;4927694;28;20093;-68
2023/03/03 07:14:13;;;;;;;24.60;18.20;;;;;;;;;;4921193;28;20035;-66
2023/03/03 07:16:39;;;;;;;23.67;15.82;;;;;;;;;;4928784;28;20389;-66
2023/03/03 07:19:13;;;;;;;24.00;14.88;;;;;;;;;;4925465;28;20038;-67
2023/03/03 07:21:40;;;;;;;21.77;12.73;;;;;;;;;;4926394;28;20082;-67
2023/03/03 07:24:19;;;;;;;17.85;11.48;;;;;;;;;;4921437;28;20037;-66
2023/03/03 07:26:45;;;;;;;18.60;10.90;;;;;;;;;;4928460;28;20058;-67
2023/03/03 07:29:25;;;;;;;16.77;10.18;;;;;;;;;;4926170;28;20035;-66
2023/03/03 07:31:52;;;;;;;18.77;11.77;;;;;;;;;;4929896;28;20037;-67
2023/03/03 07:34:21;;;;;;;17.95;10.35;;;;;;;;;;4922516;28;20363;-67
2023/03/03 07:36:48;;;;;;;17.13;11.10;;;;;;;;;;4927313;28;20562;-69
2023/03/03 07:39:17;;;;;;;17.33;10.20;;;;;;;;;;4923860;28;20028;-66
2023/03/03 07:41:43;;;;;;;16.38;10.95;;;;;;;;;;4927496;28;20031;-66
2023/03/03 07:44:21;;;;;;;19.80;11.98;;;;;;;;;;4922581;28;20055;-68
2023/03/03 07:46:48;;;;;;;14.50;9.70;;;;;;;;;;4928138;28;20039;-66
2023/03/03 07:49:32;;;;;;;16.30;11.15;;;;;;;;;;4926707;28;20646;-68
2023/03/03 07:51:59;;;;;;;15.98;9.57;;;;;;;;;;4920681;28;20031;-66
2023/03/03 07:54:27;;;;;;;;;;;;;;;;;;4925283;28;20027;-67
2023/03/03 07:56:55;;;;;;;16.30;10.27;;;;;;;;;;4924783;28;20130;-69
2023/03/03 07:59:24;;;;;;;17.13;10.70;;;;;;;;;;4925912;28;21936;-68
2023/03/03 08:01:54;;;;;;;14.18;9.90;;;;;;;;;;4927413;28;20057;-66
2023/03/03 08:04:21;;;;;;;14.05;8.85;;;;;;;;;;4923480;28;20586;-67
2023/03/03 08:06:52;;;;;;;14.45;9.57;;;;;;;;;;4926314;28;20532;-67
2023/03/03 08:09:18;;;;;;;13.85;8.70;;;;;;;;;;4922870;28;20039;-68
2023/03/03 08:11:47;;;;;;;15.55;8.57;;;;;;;;;;4924677;28;20039;-68
2023/03/03 08:14:15;;;;;;;13.98;8.48;;;;;;;;;;4921806;28;20477;-68
2023/03/03 08:16:41;;;;;;;21.80;9.88;;;;;;;;;;4929398;28;20031;-68
2023/03/03 08:19:10;;;;;;;17.60;9.43;;;;;;;;;;4922758;28;20041;-67
2023/03/03 08:21:37;;;;;;;13.15;8.27;;;;;;;;;;4928007;28;20397;-68
2023/03/03 08:24:03;;;;;;;14.50;7.97;;;;;;;;;;4924976;28;20571;-68
2023/03/03 08:26:59;;;;;;;14.80;8.48;;;;;;;;;;4927078;28;20110;-67
2023/03/03 08:29:25;;;;;;;16.48;9.38;;;;;;;;;;4879708;29;20495;-67
2023/03/03 08:34:35;;;;;;;15.70;9.20;;;;;;;;;;5282881;23;20834;-64
2023/03/03 08:37:02;;;;;;;19.40;11.88;;;;;;;;;;4942023;28;20445;-64
2023/03/03 08:39:28;;;;;;;24.17;11.10;;;;;;;;;;4940684;28;20039;-64
2023/03/03 08:41:54;;;;;;;20.23;10.65;;;;;;;;;;4940612;28;20039;-64
2023/03/03 08:44:20;;;;;;;17.92;10.57;;;;;;;;;;4941723;28;20331;-64
2023/03/03 08:46:46;;;;;;;23.63;12.80;;;;;;;;;;4938017;28;20039;-64
2023/03/03 08:49:12;;;;;;;17.90;11.85;;;;;;;;;;4934167;28;20039;-64
2023/03/03 08:51:39;;;;;;;25.52;12.32;;;;;;;;;;4938825;28;20038;-64
2023/03/03 08:54:05;;;;;;;;;;;;;;;;;;4933128;28;20122;-64
2023/03/03 08:56:31;;;;;;;19.17;12.38;;;;;;;;;;4935600;28;19914;-64
2023/03/03 08:58:57;;;;;;;19.25;10.88;;;;;;;;;;4938755;28;20035;-64
2023/03/03 09:01:23;;;;;;;22.15;13.55;;;;;;;;;;4930658;28;20038;-64
2023/03/03 09:03:49;;;;;;;20.67;12.57;;;;;;;;;;4936568;28;20047;-64
2023/03/03 09:06:15;;;;;;;24.05;13.95;;;;;;;;;;4936047;28;20679;-64
2023/03/03 09:08:41;;;;;;;29.98;18.02;;;;;;;;;;4936999;28;20031;-64
2023/03/03 09:11:14;;;;;;;32.80;20.48;;;;;;;;;;4934606;28;20038;-64
2023/03/03 09:13:40;;;;;;;54.35;36.28;;;;;;;;;;4940170;28;20166;-64
2023/03/03 09:16:10;;;;;;;55.78;37.03;;;;;;;;;;4937465;28;20586;-64
2023/03/03 09:18:38;;;;;;;62.05;39.65;;;;;;;;;;4935118;28;20026;-64
2023/03/03 09:21:23;;;;;;;58.20;38.47;;;;;;;;;;4939316;28;20038;-63
2023/03/03 09:23:53;;;;;;;47.53;31.38;;;;;;;;;;4938430;28;20102;-64
2023/03/03 09:26:27;;;;;;;39.42;25.35;;;;;;;;;;4931282;28;20039;-64
2023/03/03 09:29:12;;;;;;;35.42;21.80;;;;;;;;;;4933667;28;20204;-64
2023/03/03 09:31:41;;;;;;;30.13;19.83;;;;;;;;;;4941312;28;20031;-64
2023/03/03 09:34:22;;;;;;;27.92;16.63;;;;;;;;;;4930309;28;20306;-64
2023/03/03 09:36:48;;;;;;;24.48;16.40;;;;;;;;;;4942166;28;20050;-63
2023/03/03 09:39:22;;;;;;;21.23;13.55;;;;;;;;;;4933695;28;20054;-64
2023/03/03 09:41:48;;;;;;;20.88;12.82;;;;;;;;;;4943543;28;20037;-64
2023/03/03 09:44:16;;;;;;;19.52;12.15;;;;;;;;;;4938306;28;20058;-64
2023/03/03 09:47:00;;;;;;;19.95;12.77;;;;;;;;;;4938045;28;20489;-64
2023/03/03 09:49:26;;;;;;;20.48;11.88;;;;;;;;;;4938263;28;20038;-64
2023/03/03 09:51:53;;;;;;;20.95;14.02;;;;;;;;;;4943591;28;20117;-64
2023/03/03 09:54:37;;;;;;;20.50;13.88;;;;;;;;;;4940318;28;20653;-64
2023/03/03 09:57:13;;;;;;;34.28;20.77;;;;;;;;;;4934694;28;20019;-64
2023/03/03 09:59:43;;;;;;;29.83;19.30;;;;;;;;;;4942666;28;20026;-64
2023/03/03 10:02:39;;;;;;;36.95;22.73;;;;;;;;;;4938894;28;20770;-63
2023/03/03 10:05:05;;;;;;;39.50;27.55;;;;;;;;;;4924541;28;20051;-64
2023/03/03 10:07:43;;;;;;;54.53;35.72;;;;;;;;;;4940587;28;20207;-64
2023/03/03 10:10:21;;;;;;;48.25;29.67;;;;;;;;;;4939056;28;20034;-64
2023/03/03 10:13:10;;;;;;;42.33;29.08;;;;;;;;;;4940460;28;20436;-64
2023/03/03 10:15:50;;;;;;;40.05;25.75;;;;;;;;;;4888676;29;20047;-63
2023/03/03 10:18:24;;;;;;;39.60;25.48;;;;;;;;;;4894437;29;20585;-64
2023/03/03 10:20:53;;;;;;;36.40;23.15;;;;;;;;;;4899518;29;20074;-64
2023/03/03 10:23:31;;;;;;;35.03;23.50;;;;;;;;;;4895308;29;20499;-64
2023/03/03 10:26:07;;;;;;;40.30;24.85;;;;;;;;;;4898019;29;20043;-64
2023/03/03 10:28:48;;;;;;;33.83;21.13;;;;;;;;;;4900690;29;20498;-63
2023/03/03 10:31:24;;;;;;;34.13;21.73;;;;;;;;;;4896453;29;20413;-64
2023/03/03 10:34:09;;;;;;;33.25;21.45;;;;;;;;;;4901930;29;20056;-64
2023/03/03 10:36:38;;;;;;;33.30;20.23;;;;;;;;;;4902143;29;20070;-64
2023/03/03 10:39:21;;;;;;;29.48;19.48;;;;;;;;;;4881556;29;20217;-64
2023/03/03 10:41:53;;;;;;;29.45;19.70;;;;;;;;;;4898034;29;20115;-64
2023/03/03 10:44:25;;;;;;;33.30;22.27;;;;;;;;;;4891690;29;20374;-64
2023/03/03 10:46:51;;;;;;;30.15;19.40;;;;;;;;;;4896863;29;20191;-64
2023/03/03 10:49:27;;;;;;;26.98;17.17;;;;;;;;;;4893716;29;20066;-64
2023/03/03 10:52:06;;;;;;;23.80;14.57;;;;;;;;;;4904949;28;20599;-64
2023/03/03 10:54:32;;;;;;;21.65;14.50;;;;;;;;;;4945283;28;20046;-64
2023/03/03 10:56:58;;;;;;;21.17;13.75;;;;;;;;;;4942726;28;20038;-64
2023/03/03 10:59:24;;;;;;;;;;;;;;;;;;4941771;28;20484;-64
2023/03/03 11:01:50;;;;;;;21.75;14.40;;;;;;;;;;4945314;28;20032;-64
2023/03/03 11:04:20;;;;;;;18.95;12.68;;;;;;;;;;4939058;28;20559;-65
2023/03/03 11:06:53;;;;;;;18.92;12.57;;;;;;;;;;4942276;28;20042;-65
2023/03/03 11:09:22;;;;;;;17.85;11.57;;;;;;;;;;4938861;28;20466;-65
2023/03/03 11:12:02;;;;;;;17.02;10.57;;;;;;;;;;4936635;28;20217;-65
2023/03/03 11:14:31;;;;;;;19.75;14.63;;;;;;;;;;4941191;28;20050;-65
2023/03/03 11:17:20;;;;;;;23.13;17.02;;;;;;;;;;4941046;28;20149;-65
2023/03/03 11:19:46;;;;;;;28.70;19.77;;;;;;;;;;4940271;28;20379;-65
2023/03/03 11:22:15;;;;;;;27.52;23.10;;;;;;;;;;4938539;28;20050;-65
2023/03/03 11:25:00;;;;;;;19.08;13.70;;;;;;;;;;4939355;28;20723;-65
2023/03/03 11:27:33;;;;;;;18.38;11.55;;;;;;;;;;4937332;28;20382;-65
2023/03/03 11:29:59;;;;;;;15.65;9.75;;;;;;;;;;4944096;28;20077;-65
2023/03/03 11:32:26;;;;;;;;;;;;;;;;;;4940813;28;20560;-65
2023/03/03 11:34:56;;;;;;;14.45;8.65;;;;;;;;;;4936374;28;19981;-65
2023/03/03 11:37:26;;;;;;;12.90;8.10;;;;;;;;;;4942828;28;24506;-65
2023/03/03 11:39:54;;;;;;;13.82;8.68;;;;;;;;;;4944977;28;20049;-65
2023/03/03 11:42:26;;;;;;;13.27;8.23;;;;;;;;;;4938962;28;20042;-65
2023/03/03 11:44:56;;;;;;;15.07;7.95;;;;;;;;;;4941215;28;20078;-65
2023/03/03 11:47:29;;;;;;;12.32;7.90;;;;;;;;;;4942432;28;20034;-65
2023/03/03 11:50:08;;;;;;;11.75;7.72;;;;;;;;;;4941109;28;20481;-65
2023/03/03 11:52:47;;;;;;;12.18;8.15;;;;;;;;;;4943001;28;20039;-66
2023/03/03 11:55:15;;;;;;;12.48;7.53;;;;;;;;;;4937766;28;20660;-65
2023/03/03 11:57:49;;;;;;;13.35;7.30;;;;;;;;;;4942826;28;20412;-65
2023/03/03 12:00:40;;;;;;;13.73;8.07;;;;;;;;;;4937995;28;20129;-66
2023/03/03 12:03:18;;;;;;;11.52;7.60;;;;;;;;;;4941532;28;20389;-65
2023/03/03 12:05:53;;;;;;;14.00;8.25;;;;;;;;;;4943688;28;20489;-66
2023/03/03 12:08:19;;;;;;;12.27;6.85;;;;;;;;;;4939084;28;20030;-66
2023/03/03 12:10:53;;;;;;;10.20;6.22;;;;;;;;;;4940280;28;20332;-66
2023/03/03 12:13:25;;;;;;;12.63;8.30;;;;;;;;;;4935485;28;20034;-66
2023/03/03 12:15:55;;;;;;;13.20;8.00;;;;;;;;;;4941573;28;20454;-66
2023/03/03 12:18:44;;;;;;;17.75;8.50;;;;;;;;;;4937286;28;20046;-66
2023/03/03 12:21:12;;;;;;;14.65;7.82;;;;;;;;;;4936040;28;20380;-66
2023/03/03 12:24:05;;;;;;;13.38;9.25;;;;;;;;;;4938728;28;20027;-66
2023/03/03 12:26:37;;;;;;;16.17;11.05;;;;;;;;;;4935460;28;20196;-65
2023/03/03 12:29:13;;;;;;;16.98;10.90;;;;;;;;;;4934329;28;20109;-65
2023/03/03 12:31:47;;;;;;;15.93;11.35;;;;;;;;;;4937795;28;20106;-66
2023/03/03 12:34:14;;;;;;;14.40;10.00;;;;;;;;;;4935069;28;20540;-66
2023/03/03 12:36:49;;;;;;;16.38;12.07;;;;;;;;;;4939827;28;20089;-66
2023/03/03 12:39:34;;;;;;;16.83;10.93;;;;;;;;;;4935610;28;20035;-66
2023/03/03 12:42:06;;;;;;;18.05;11.65;;;;;;;;;;4939222;28;20476;-66
2023/03/03 12:44:39;;;;;;;19.00;11.75;;;;;;;;;;4939666;28;20516;-66
2023/03/03 12:47:18;;;;;;;19.20;11.45;;;;;;;;;;4933796;28;20031;-65
2023/03/03 12:49:56;;;;;;;17.90;11.88;;;;;;;;;;4931404;28;20441;-66
2023/03/03 12:52:42;;;;;;;18.60;11.55;;;;;;;;;;4930687;28;22182;-66
2023/03/03 12:55:26;;;;;;;19.13;12.30;;;;;;;;;;4922622;28;20489;-65
2023/03/03 12:57:59;;;;;;;18.52;10.35;;;;;;;;;;4931553;28;20031;-66
2023/03/03 13:00:54;;;;;;;17.67;10.85;;;;;;;;;;4936323;28;20031;-66
2023/03/03 13:03:20;;;;;;;18.65;11.93;;;;;;;;;;4932992;28;20031;-66
2023/03/03 13:05:46;;;;;;;15.23;9.75;;;;;;;;;;4939533;28;20031;-65
2023/03/03 13:08:12;;;;;;;;;;;;;;;;;;4934277;28;20157;-66
2023/03/03 13:10:42;;;;;;;16.42;9.20;;;;;;;;;;4938074;28;19941;-65
2023/03/03 13:13:18;;;;;;;14.43;9.98;;;;;;;;;;4936828;28;20096;-65
2023/03/03 13:16:00;;;;;;;14.20;9.07;;;;;;;;;;4940325;28;20493;-65
2023/03/03 13:18:26;;;;;;;14.95;9.88;;;;;;;;;;4935579;28;20560;-66
2023/03/03 13:21:05;;;;;;;15.38;10.07;;;;;;;;;;4937658;28;20122;-65
2023/03/03 13:23:31;;;;;;;16.67;9.93;;;;;;;;;;4944675;28;20030;-65
2023/03/03 13:26:02;;;;;;;13.65;9.25;;;;;;;;;;4939805;28;20745;-65
2023/03/03 13:28:48;;;;;;;14.30;9.05;;;;;;;;;;4939031;28;20506;-65
2023/03/03 13:31:16;;;;;;;14.80;9.13;;;;;;;;;;4940829;28;20027;-65
2023/03/03 13:33:47;;;;;;;13.48;8.38;;;;;;;;;;4941332;28;20389;-66
2023/03/03 13:36:15;;;;;;;14.52;9.48;;;;;;;;;;4934169;28;20034;-64
2023/03/03 13:38:47;;;;;;;15.70;8.90;;;;;;;;;;4938914;28;20575;-64
2023/03/03 13:41:23;;;;;;;14.38;8.85;;;;;;;;;;4938588;28;20117;-63
2023/03/03 13:44:06;;;;;;;16.05;9.50;;;;;;;;;;4940877;28;20839;-66
2023/03/03 13:46:55;;;;;;;16.23;9.40;;;;;;;;;;4938496;28;20488;-66
2023/03/03 13:49:31;;;;;;;14.82;9.18;;;;;;;;;;4938609;28;20049;-66
2023/03/03 13:52:02;;;;;;;12.68;8.73;;;;;;;;;;4938930;28;20589;-66
2023/03/03 13:54:39;;;;;;;15.00;9.55;;;;;;;;;;4942222;28;20033;-66
2023/03/03 13:57:17;;;;;;;14.48;10.23;;;;;;;;;;4937522;28;20441;-66
2023/03/03 13:59:44;;;;;;;14.27;9.85;;;;;;;;;;4940251;28;20034;-66
2023/03/03 14:02:30;;;;;;;13.70;8.35;;;;;;;;;;4938888;28;20610;-66
2023/03/03 14:05:11;;;;;;;13.60;8.83;;;;;;;;;;4939896;28;20034;-66
2023/03/03 14:07:44;;;;;;;15.23;9.52;;;;;;;;;;4944966;28;20381;-66
2023/03/03 14:10:20;;;;;;;14.00;8.98;;;;;;;;;;4940685;28;20030;-66
2023/03/03 14:12:58;;;;;;;13.85;8.27;;;;;;;;;;4941246;28;20023;-64
2023/03/03 14:15:27;;;;;;;14.90;8.68;;;;;;;;;;4938529;28;20508;-64
2023/03/03 14:18:04;;;;;;;13.82;8.32;;;;;;;;;;4941371;28;20035;-65
2023/03/03 14:20:30;;;;;;;14.32;8.27;;;;;;;;;;4938843;28;20101;-65
2023/03/03 14:23:01;;;;;;;13.45;8.50;;;;;;;;;;4943778;28;20035;-65
2023/03/03 14:25:47;;;;;;;13.52;8.45;;;;;;;;;;4943104;28;20073;-64
2023/03/03 14:28:15;;;;;;;13.27;8.93;;;;;;;;;;4936823;28;20132;-64
2023/03/03 14:30:42;;;;;;;13.60;8.95;;;;;;;;;;4942551;28;20111;-64
2023/03/03 14:33:08;;;;;;;12.63;7.53;;;;;;;;;;4944697;28;20181;-64
2023/03/03 14:35:34;;;;;;;;;;;;;;;;;;4941925;28;20444;-64
2023/03/03 14:38:13;;;;;;;14.38;7.30;;;;;;;;;;4942836;28;20146;-64
2023/03/03 14:40:41;;;;;;;12.45;7.35;;;;;;;;;;4943660;28;20031;-64
2023/03/03 14:43:33;;;;;;;12.57;7.70;;;;;;;;;;4943730;28;20073;-64
2023/03/03 14:46:19;;;;;;;12.40;7.35;;;;;;;;;;4943797;28;20396;-65
2023/03/03 14:48:52;;;;;;;12.20;6.93;;;;;;;;;;4940393;28;20027;-64